createdAt,value
2022-11-06T00:00:09.435Z,62.71
2022-11-06T00:02:57.771Z,62.57
2022-11-06T00:06:01.542Z,62.44
2022-11-06T00:08:46.840Z,62.44
2022-11-06T00:11:32.221Z,62.41
2022-11-06T00:14:18.057Z,62.25
2022-11-06T00:17:03.173Z,62.26
2022-11-06T00:19:48.459Z,62.29
2022-11-06T00:22:34.526Z,62.30
2022-11-06T00:25:19.907Z,62.20
2022-11-06T00:28:05.418Z,62.30
2022-11-06T00:30:50.590Z,62.42
2022-11-06T00:33:36.007Z,62.40
2022-11-06T00:36:22.802Z,62.48
2022-11-06T00:39:10.910Z,62.43
2022-11-06T00:41:56.455Z,62.37
2022-11-06T00:44:41.776Z,62.43
2022-11-06T00:47:27.012Z,62.39
2022-11-06T00:50:12.370Z,62.51
2022-11-06T00:52:57.527Z,62.34
2022-11-06T00:55:42.810Z,62.46
2022-11-06T00:58:28.209Z,62.48
2022-11-06T01:01:19.848Z,62.29
2022-11-06T01:04:13.212Z,62.40
2022-11-06T01:06:58.869Z,62.53
2022-11-06T01:09:44.327Z,62.54
2022-11-06T01:12:31.989Z,62.68
2022-11-06T01:15:17.580Z,62.72
2022-11-06T01:18:02.975Z,62.66
2022-11-06T01:20:48.870Z,62.73
2022-11-06T01:23:34.620Z,62.69
2022-11-06T01:26:36.870Z,62.75
2022-11-06T01:29:23.548Z,62.69
2022-11-06T01:32:09.502Z,62.61
2022-11-06T01:34:54.992Z,62.66
2022-11-06T01:37:40.274Z,62.78
2022-11-06T01:40:25.689Z,62.83
2022-11-06T01:43:45.644Z,62.80
2022-11-06T01:46:33.782Z,62.85
2022-11-06T01:49:19.516Z,62.89
2022-11-06T01:52:09.330Z,62.85
2022-11-06T01:54:58.438Z,62.78
2022-11-06T01:57:44.663Z,62.85
2022-11-06T02:00:31.232Z,63.08
2022-11-06T02:03:16.966Z,63.04
2022-11-06T02:06:03.221Z,63.03
2022-11-06T02:08:48.615Z,62.96
2022-11-06T02:11:33.735Z,63.15
2022-11-06T02:14:34.845Z,63.12
2022-11-06T02:17:47.192Z,63.02
2022-11-06T02:20:55.907Z,63.23
2022-11-06T02:23:57.527Z,63.13
2022-11-06T02:27:00.632Z,63.36
2022-11-06T02:29:46.580Z,63.27
2022-11-06T02:32:52.256Z,63.13
2022-11-06T02:36:03.913Z,63.16
2022-11-06T02:39:00.977Z,62.97
2022-11-06T02:41:49.658Z,63.21
2022-11-06T02:44:37.272Z,63.34
2022-11-06T02:47:25.412Z,63.19
2022-11-06T02:50:17.453Z,63.21
2022-11-06T02:53:06.768Z,63.39
2022-11-06T02:56:00.122Z,63.35
2022-11-06T02:58:55.365Z,63.25
2022-11-06T03:01:48.498Z,63.34
2022-11-06T03:04:40.762Z,63.25
2022-11-06T03:07:50.277Z,63.49
2022-11-06T03:11:31.219Z,63.32
2022-11-06T03:14:23.451Z,63.32
2022-11-06T03:17:46.087Z,63.43
2022-11-06T03:20:41.991Z,63.48
2022-11-06T03:23:49.251Z,63.40
2022-11-06T03:26:38.537Z,63.43
2022-11-06T03:29:46.368Z,63.50
2022-11-06T03:32:41.414Z,63.42
2022-11-06T03:35:38.408Z,63.47
2022-11-06T03:38:27.742Z,63.45
2022-11-06T03:41:20.533Z,63.42
2022-11-06T03:44:11.402Z,63.50
2022-11-06T03:47:15.902Z,63.64
2022-11-06T03:50:08.391Z,63.58
2022-11-06T03:53:03.893Z,63.54
2022-11-06T03:55:55.860Z,63.54
2022-11-06T03:58:44.367Z,63.62
2022-11-06T04:01:34.194Z,63.66
2022-11-06T04:04:23.521Z,63.75
2022-11-06T04:07:14.104Z,63.60
2022-11-06T04:10:22.369Z,63.63
2022-11-06T04:13:26.344Z,63.62
2022-11-06T04:16:12.238Z,63.64
2022-11-06T04:18:57.959Z,63.78
2022-11-06T04:22:01.953Z,63.60
2022-11-06T04:25:31.666Z,63.50
2022-11-06T04:28:23.052Z,63.62
2022-11-06T04:31:28.324Z,63.63
2022-11-06T04:34:24.926Z,63.68
2022-11-06T04:37:34.148Z,63.73
2022-11-06T04:40:32.932Z,63.77
2022-11-06T04:43:41.737Z,63.87
2022-11-06T04:46:36.726Z,63.56
2022-11-06T04:49:23.884Z,63.68
2022-11-06T04:52:17.609Z,63.57
2022-11-06T04:55:03.208Z,63.70
2022-11-06T04:57:49.867Z,63.68
2022-11-06T05:00:35.228Z,63.74
2022-11-06T05:03:20.583Z,63.68
2022-11-06T05:06:06.045Z,63.57
2022-11-06T05:08:51.575Z,63.83
2022-11-06T05:11:38.446Z,63.64
2022-11-06T05:14:23.525Z,63.71
2022-11-06T05:17:08.927Z,63.81
2022-11-06T05:19:54.206Z,63.84
2022-11-06T05:22:58.110Z,63.94
2022-11-06T05:25:43.647Z,64.04
2022-11-06T05:28:28.909Z,64.01
2022-11-06T05:31:14.173Z,64.05
2022-11-06T05:33:59.260Z,64.19
2022-11-06T05:36:44.679Z,63.97
2022-11-06T05:39:29.983Z,64.18
2022-11-06T05:42:15.193Z,64.09
2022-11-06T05:45:00.376Z,64.17
2022-11-06T05:47:45.610Z,64.23
2022-11-06T05:50:31.017Z,64.26
2022-11-06T05:53:22.370Z,64.06
2022-11-06T05:56:08.051Z,64.52
2022-11-06T05:58:53.329Z,64.22
2022-11-06T06:01:38.723Z,64.25
2022-11-06T06:04:24.305Z,64.78
2022-11-06T06:07:10.127Z,64.58
2022-11-06T06:09:56.640Z,64.43
2022-11-06T06:12:42.320Z,64.41
2022-11-06T06:15:27.739Z,64.49
2022-11-06T06:18:13.857Z,64.53
2022-11-06T06:20:59.334Z,64.62
2022-11-06T06:23:44.628Z,64.44
2022-11-06T06:26:57.004Z,64.40
2022-11-06T06:29:42.738Z,64.43
2022-11-06T06:32:28.102Z,64.48
2022-11-06T06:35:13.660Z,64.48
2022-11-06T06:37:59.467Z,64.55
2022-11-06T06:40:44.870Z,64.44
2022-11-06T06:43:30.463Z,64.22
2022-11-06T06:46:16.753Z,64.49
2022-11-06T06:49:02.343Z,64.78
2022-11-06T06:51:48.798Z,64.20
2022-11-06T06:54:35.709Z,63.95
2022-11-06T06:57:20.732Z,64.26
2022-11-06T07:00:06.735Z,64.10
2022-11-06T07:02:52.856Z,63.86
2022-11-06T07:05:39.681Z,63.74
2022-11-06T07:08:26.777Z,64.00
2022-11-06T07:11:12.138Z,64.07
2022-11-06T07:13:57.631Z,63.79
2022-11-06T07:16:43.511Z,63.95
2022-11-06T07:19:28.778Z,63.88
2022-11-06T07:22:14.110Z,64.21
2022-11-06T07:24:59.776Z,64.32
2022-11-06T07:27:45.263Z,64.01
2022-11-06T07:30:31.004Z,64.28
2022-11-06T07:33:16.311Z,64.48
2022-11-06T07:36:12.339Z,64.29
2022-11-06T07:39:05.040Z,64.70
2022-11-06T07:41:51.357Z,64.24
2022-11-06T07:44:36.813Z,63.92
2022-11-06T07:47:22.693Z,59.74
2022-11-06T07:50:08.206Z,54.75
2022-11-06T07:52:54.001Z,54.45
2022-11-06T07:55:42.334Z,58.35
2022-11-06T07:58:28.354Z,59.12
2022-11-06T08:01:18.654Z,59.47
2022-11-06T08:04:04.443Z,59.86
2022-11-06T08:06:50.287Z,60.90
2022-11-06T08:09:36.000Z,60.99
2022-11-06T08:12:21.273Z,60.94
2022-11-06T08:15:07.069Z,61.03
2022-11-06T08:17:52.526Z,62.23
2022-11-06T08:20:39.278Z,62.85
2022-11-06T08:23:24.756Z,63.07
2022-11-06T08:26:11.049Z,63.03
2022-11-06T08:28:57.697Z,62.78
2022-11-06T08:31:43.472Z,62.86
2022-11-06T08:34:29.067Z,62.87
2022-11-06T08:37:14.250Z,62.41
2022-11-06T08:39:59.369Z,62.57
2022-11-06T08:42:44.668Z,62.58
2022-11-06T08:45:30.580Z,62.45
2022-11-06T08:48:15.836Z,62.49
2022-11-06T08:51:01.277Z,62.61
2022-11-06T08:53:46.963Z,62.77
2022-11-06T08:56:32.150Z,63.39
2022-11-06T08:59:17.637Z,63.10
2022-11-06T09:02:03.496Z,63.38
2022-11-06T09:04:48.922Z,63.53
2022-11-06T09:07:34.557Z,63.33
2022-11-06T09:10:20.243Z,63.36
2022-11-06T09:13:06.416Z,63.72
2022-11-06T09:15:52.382Z,63.76
2022-11-06T09:21:24.131Z,63.59
2022-11-06T09:24:09.581Z,63.76
2022-11-06T09:26:55.555Z,63.52
2022-11-06T09:29:43.945Z,63.39
2022-11-06T09:32:29.554Z,63.68
2022-11-06T09:35:15.381Z,63.84
2022-11-06T09:38:10.124Z,63.69
2022-11-06T09:40:59.144Z,63.65
2022-11-06T09:44:08.703Z,63.71
2022-11-06T09:46:58.693Z,63.61
2022-11-06T09:49:53.996Z,63.85
2022-11-06T09:52:54.737Z,63.81
2022-11-06T09:55:43.423Z,63.58
2022-11-06T09:58:35.470Z,63.48
2022-11-06T10:01:34.451Z,63.11
2022-11-06T10:04:39.331Z,62.97
2022-11-06T10:07:29.274Z,63.43
2022-11-06T10:10:21.012Z,62.83
2022-11-06T10:13:25.648Z,62.97
2022-11-06T10:16:43.729Z,63.37
2022-11-06T10:19:41.646Z,63.06
2022-11-06T10:22:40.288Z,62.83
2022-11-06T10:25:36.036Z,62.85
2022-11-06T10:28:29.202Z,62.79
2022-11-06T10:31:33.328Z,62.97
2022-11-06T10:34:29.997Z,63.00
2022-11-06T10:37:42.937Z,62.82
2022-11-06T10:40:31.708Z,62.76
2022-11-06T10:43:24.166Z,62.77
2022-11-06T10:46:09.619Z,62.42
2022-11-06T10:49:01.225Z,62.10
2022-11-06T10:52:10.104Z,62.25
2022-11-06T10:55:26.266Z,62.14
2022-11-06T10:58:21.501Z,62.15
2022-11-06T11:01:12.084Z,62.46
2022-11-06T11:03:57.468Z,62.71
2022-11-06T11:06:42.874Z,62.39
2022-11-06T11:09:32.274Z,62.16
2022-11-06T11:12:30.751Z,61.87
2022-11-06T11:15:19.523Z,62.00
2022-11-06T11:18:07.923Z,62.35
2022-11-06T11:21:07.466Z,62.50
2022-11-06T11:24:09.584Z,62.88
2022-11-06T11:27:04.457Z,63.18
2022-11-06T11:29:50.550Z,63.03
2022-11-06T11:32:36.389Z,62.79
2022-11-06T11:35:30.806Z,64.24
2022-11-06T11:38:18.969Z,63.05
2022-11-06T11:41:19.638Z,62.98
2022-11-06T11:44:09.427Z,63.24
2022-11-06T11:46:55.283Z,63.04
2022-11-06T11:49:40.483Z,63.14
2022-11-06T11:52:25.658Z,62.49
2022-11-06T11:55:17.628Z,61.80
2022-11-06T11:58:03.464Z,62.19
2022-11-06T12:00:53.667Z,62.36
2022-11-06T12:03:43.437Z,62.64
2022-11-06T12:06:28.998Z,62.23
2022-11-06T12:09:14.374Z,61.92
2022-11-06T12:12:01.557Z,61.85
2022-11-06T12:14:46.826Z,62.18
2022-11-06T12:17:35.888Z,62.33
2022-11-06T12:20:34.819Z,62.42
2022-11-06T12:23:28.367Z,62.49
2022-11-06T12:26:20.009Z,62.62
2022-11-06T12:29:26.493Z,62.58
2022-11-06T12:32:47.353Z,62.64
2022-11-06T12:35:38.198Z,62.81
2022-11-06T12:38:46.324Z,63.01
2022-11-06T12:41:36.325Z,63.25
2022-11-06T12:44:21.899Z,63.26
2022-11-06T12:47:27.491Z,63.62
2022-11-06T12:50:29.301Z,63.85
2022-11-06T12:53:27.169Z,64.19
2022-11-06T12:56:34.903Z,64.21
2022-11-06T12:59:50.014Z,64.63
2022-11-06T13:03:05.691Z,64.31
2022-11-06T13:06:13.541Z,64.08
2022-11-06T13:09:18.463Z,63.52
2022-11-06T13:12:15.864Z,63.23
2022-11-06T13:15:17.797Z,63.08
2022-11-06T13:18:24.204Z,63.10
2022-11-06T13:21:12.934Z,63.50
2022-11-06T13:24:07.098Z,63.90
2022-11-06T13:27:14.235Z,64.00
2022-11-06T13:30:12.197Z,64.23
2022-11-06T13:33:08.679Z,64.28
2022-11-06T13:35:54.936Z,64.15
2022-11-06T13:38:55.127Z,64.29
2022-11-06T13:41:40.558Z,64.42
2022-11-06T13:44:27.525Z,64.43
2022-11-06T13:47:22.411Z,65.22
2022-11-06T13:50:25.260Z,64.40
2022-11-06T13:53:17.699Z,64.50
2022-11-06T13:56:44.804Z,64.72
2022-11-06T13:59:49.099Z,64.80
2022-11-06T14:03:12.231Z,64.68
2022-11-06T14:06:05.604Z,64.49
2022-11-06T14:08:52.468Z,63.48
2022-11-06T14:11:42.184Z,63.66
2022-11-06T14:14:30.447Z,63.54
2022-11-06T14:17:16.299Z,63.56
2022-11-06T14:20:25.660Z,63.47
2022-11-06T14:23:38.289Z,63.48
2022-11-06T14:26:50.316Z,63.58
2022-11-06T14:29:35.649Z,63.51
2022-11-06T14:32:21.641Z,63.68
2022-11-06T14:35:29.115Z,63.80
2022-11-06T14:38:29.774Z,63.74
2022-11-06T14:41:34.118Z,63.63
2022-11-06T14:44:27.928Z,63.62
2022-11-06T14:47:45.864Z,63.91
2022-11-06T14:50:39.020Z,63.73
2022-11-06T14:53:29.907Z,63.73
2022-11-06T14:56:31.367Z,63.90
2022-11-06T14:59:22.050Z,63.90
2022-11-06T15:02:23.367Z,64.21
2022-11-06T15:05:17.842Z,64.36
2022-11-06T15:08:05.274Z,64.25
2022-11-06T15:10:53.627Z,64.11
2022-11-06T15:13:39.031Z,63.99
2022-11-06T15:16:28.410Z,63.87
2022-11-06T15:19:17.897Z,63.44
2022-11-06T15:22:07.044Z,63.42
2022-11-06T15:25:06.673Z,63.31
2022-11-06T15:28:04.295Z,63.21
2022-11-06T15:31:00.744Z,62.63
2022-11-06T15:34:13.457Z,63.00
2022-11-06T15:37:11.771Z,62.51
2022-11-06T15:40:01.253Z,62.56
2022-11-06T15:42:47.277Z,62.30
2022-11-06T15:45:32.940Z,62.56
2022-11-06T15:48:24.008Z,62.49
2022-11-06T15:51:21.082Z,62.55
2022-11-06T15:54:06.917Z,62.49
2022-11-06T15:56:54.287Z,62.38
2022-11-06T15:59:40.814Z,62.33
2022-11-06T16:02:26.475Z,62.43
2022-11-06T16:05:12.139Z,62.36
2022-11-06T16:08:00.249Z,62.36
2022-11-06T16:10:48.388Z,62.40
2022-11-06T16:13:34.040Z,62.33
2022-11-06T16:16:36.272Z,62.48
2022-11-06T16:19:35.106Z,62.45
2022-11-06T16:22:29.187Z,62.57
2022-11-06T16:25:19.479Z,62.82
2022-11-06T16:28:05.281Z,62.22
2022-11-06T16:30:51.658Z,62.32
2022-11-06T16:33:37.465Z,60.24
2022-11-06T16:36:23.470Z,57.94
2022-11-06T16:39:18.144Z,59.98
2022-11-06T16:42:23.210Z,60.21
2022-11-06T16:45:17.929Z,60.59
2022-11-06T16:48:06.191Z,60.45
2022-11-06T16:50:57.150Z,60.37
2022-11-06T16:53:48.997Z,60.14
2022-11-06T16:56:35.027Z,59.59
2022-11-06T16:59:25.147Z,60.06
2022-11-06T17:02:24.024Z,62.02
2022-11-06T17:05:16.535Z,61.34
2022-11-06T17:08:20.597Z,62.20
2022-11-06T17:11:12.077Z,62.51
2022-11-06T17:13:57.719Z,62.60
2022-11-06T17:16:49.826Z,62.35
2022-11-06T17:19:35.297Z,62.42
2022-11-06T17:22:26.382Z,62.58
2022-11-06T17:25:12.199Z,62.43
2022-11-06T17:27:57.933Z,62.27
2022-11-06T17:30:43.774Z,61.93
2022-11-06T17:33:29.249Z,61.96
2022-11-06T17:36:18.195Z,61.89
2022-11-06T17:39:04.240Z,61.75
2022-11-06T17:41:49.823Z,61.58
2022-11-06T17:44:35.167Z,60.87
2022-11-06T17:47:20.537Z,60.62
2022-11-06T17:50:06.386Z,61.10
2022-11-06T17:52:51.937Z,61.66
2022-11-06T17:55:37.518Z,60.03
2022-11-06T17:58:23.093Z,59.48
2022-11-06T18:01:10.596Z,60.72
2022-11-06T18:03:56.383Z,61.08
2022-11-06T18:06:47.887Z,61.37
2022-11-06T18:09:33.494Z,61.60
2022-11-06T18:12:21.517Z,61.26
2022-11-06T18:15:07.463Z,61.26
2022-11-06T18:17:52.836Z,60.98
2022-11-06T18:20:44.069Z,60.97
2022-11-06T18:23:29.136Z,60.80
2022-11-06T18:26:14.545Z,60.88
2022-11-06T18:29:00.249Z,60.40
2022-11-06T18:31:45.791Z,60.75
2022-11-06T18:34:31.148Z,60.86
2022-11-06T18:37:16.772Z,61.15
2022-11-06T18:40:02.721Z,60.92
2022-11-06T18:42:48.403Z,60.37
2022-11-06T18:45:38.115Z,60.19
2022-11-06T18:48:23.732Z,60.14
2022-11-06T18:51:27.549Z,59.97
2022-11-06T18:54:19.038Z,59.60
2022-11-06T18:57:04.152Z,59.04
2022-11-06T18:59:49.500Z,59.07
2022-11-06T19:02:34.893Z,58.97
2022-11-06T19:05:20.589Z,58.66
2022-11-06T19:08:05.921Z,58.78
2022-11-06T19:10:51.030Z,58.71
2022-11-06T19:13:36.622Z,58.86
2022-11-06T19:16:22.141Z,58.57
2022-11-06T19:19:07.604Z,58.17
2022-11-06T19:21:53.277Z,57.92
2022-11-06T19:24:38.700Z,57.68
2022-11-06T19:27:23.909Z,57.60
2022-11-06T19:30:09.578Z,57.82
2022-11-06T19:32:54.709Z,57.83
2022-11-06T19:35:40.383Z,58.12
2022-11-06T19:38:25.658Z,57.97
2022-11-06T19:41:10.976Z,58.15
2022-11-06T19:43:56.827Z,58.03
2022-11-06T19:46:42.369Z,57.98
2022-11-06T19:49:27.721Z,57.77
2022-11-06T19:52:41.258Z,57.83
2022-11-06T19:55:25.965Z,57.79
2022-11-06T19:58:15.628Z,57.57
2022-11-06T20:01:06.934Z,57.50
2022-11-06T20:03:52.244Z,57.32
2022-11-06T20:06:39.198Z,57.72
2022-11-06T20:09:24.470Z,57.97
2022-11-06T20:12:09.833Z,58.13
2022-11-06T20:14:54.930Z,58.10
2022-11-06T20:17:40.339Z,57.80
2022-11-06T20:20:26.013Z,58.14
2022-11-06T20:23:12.213Z,58.31
2022-11-06T20:25:57.831Z,58.07
2022-11-06T20:28:43.195Z,58.20
2022-11-06T20:31:28.651Z,58.25
2022-11-06T20:34:13.926Z,58.37
2022-11-06T20:36:59.407Z,58.43
2022-11-06T20:39:45.500Z,58.33
2022-11-06T20:42:31.065Z,58.68
2022-11-06T20:45:16.430Z,58.49
2022-11-06T20:48:01.562Z,58.52
2022-11-06T20:51:01.041Z,58.47
2022-11-06T20:53:47.125Z,58.52
2022-11-06T20:56:33.338Z,58.58
2022-11-06T20:59:19.197Z,58.66
2022-11-06T21:02:04.585Z,58.62
2022-11-06T21:04:49.790Z,58.67
2022-11-06T21:07:35.319Z,58.62
2022-11-06T21:10:20.466Z,58.85
2022-11-06T21:13:05.757Z,58.58
2022-11-06T21:16:05.407Z,58.78
2022-11-06T21:18:51.149Z,58.72
2022-11-06T21:21:39.643Z,58.85
2022-11-06T21:24:25.464Z,58.82
2022-11-06T21:27:10.838Z,58.56
2022-11-06T21:29:57.206Z,58.41
2022-11-06T21:32:42.493Z,58.17
2022-11-06T21:35:27.806Z,58.07
2022-11-06T21:38:12.988Z,58.16
2022-11-06T21:40:58.387Z,58.19
2022-11-06T21:43:44.440Z,58.12
2022-11-06T21:46:29.890Z,58.24
2022-11-06T21:49:15.267Z,58.28
2022-11-06T21:52:23.898Z,58.29
2022-11-06T21:55:30.642Z,58.51
2022-11-06T21:58:16.446Z,58.49
2022-11-06T22:01:05.825Z,58.50
2022-11-06T22:03:51.516Z,58.64
2022-11-06T22:06:40.271Z,58.50
2022-11-06T22:09:26.207Z,58.61
2022-11-06T22:12:11.453Z,58.79
2022-11-06T22:14:56.548Z,58.81
2022-11-06T22:17:41.792Z,58.82
2022-11-06T22:20:26.942Z,58.82
2022-11-06T22:23:14.414Z,58.72
2022-11-06T22:26:00.113Z,58.92
2022-11-06T22:28:45.710Z,59.09
2022-11-06T22:31:31.269Z,59.08
2022-11-06T22:34:16.534Z,59.12
2022-11-06T22:37:01.686Z,59.14
2022-11-06T22:39:50.073Z,59.18
2022-11-06T22:42:35.268Z,58.89
2022-11-06T22:45:20.953Z,59.11
2022-11-06T22:48:06.357Z,59.29
2022-11-06T22:50:51.437Z,59.46
2022-11-06T22:53:36.724Z,59.52
2022-11-06T22:56:23.756Z,59.39
2022-11-06T22:59:10.593Z,59.62
2022-11-06T23:01:56.103Z,59.49
2022-11-06T23:04:41.419Z,59.68
2022-11-06T23:07:26.697Z,59.45
2022-11-06T23:10:12.055Z,59.79
2022-11-06T23:12:57.945Z,59.74
2022-11-06T23:15:43.325Z,59.93
2022-11-06T23:18:28.606Z,59.83
2022-11-06T23:21:19.065Z,60.02
2022-11-06T23:24:05.909Z,59.99
2022-11-06T23:26:51.483Z,59.92
2022-11-06T23:29:36.760Z,60.04
2022-11-06T23:32:22.263Z,60.14
2022-11-06T23:35:13.297Z,60.02
2022-11-06T23:37:59.733Z,60.27
2022-11-06T23:40:45.336Z,60.01
2022-11-06T23:43:30.514Z,60.27
2022-11-06T23:46:21.007Z,60.40
2022-11-06T23:49:06.446Z,60.37
2022-11-06T23:51:51.775Z,60.45
2022-11-06T23:54:37.114Z,60.51
2022-11-06T23:57:22.549Z,60.48
